Time;durP1;ratioP1;P1;durP2;ratioP2;P2;SDS_P1;SDS_P2;PMS_P1;PMS_P2;Temp;Humidity;BMP_temperature;BMP_pressure;BME280_temperature;BME280_humidity;BME280_pressure;Samples;Min_cycle;Max_cycle;Signal;HPM_P1;HPM_P2
2021/04/26 00:01:35;;;;;;;17.45;11.98;;;8.00;69.90;;;;;;5070724;28;20517;-79
2021/04/26 00:04:01;;;;;;;19.63;11.93;;;8.00;69.90;;;;;;5073377;28;20099;-79
2021/04/26 00:06:27;;;;;;;18.92;12.90;;;8.00;70.00;;;;;;5073376;28;20021;-80
2021/04/26 00:08:53;;;;;;;23.13;13.95;;;7.90;70.00;;;;;;5073172;28;20024;-80
2021/04/26 00:11:19;;;;;;;25.10;13.95;;;7.90;70.10;;;;;;5072143;28;20029;-79
2021/04/26 00:13:46;;;;;;;23.45;14.25;;;7.90;70.20;;;;;;5073315;28;20021;-79
2021/04/26 00:16:11;;;;;;;37.00;17.70;;;7.90;70.30;;;;;;5074383;28;20059;-79
2021/04/26 00:18:37;;;;;;;58.90;26.45;;;7.90;70.40;;;;;;5076093;28;20020;-80
2021/04/26 00:21:03;;;;;;;63.15;29.88;;;7.80;70.40;;;;;;5076429;28;20104;-78
2021/04/26 00:23:29;;;;;;;37.47;19.38;;;7.80;70.50;;;;;;5074046;28;20424;-80
2021/04/26 00:25:55;;;;;;;29.80;17.70;;;7.80;70.60;;;;;;5073406;28;20056;-79
2021/04/26 00:28:20;;;;;;;29.60;16.13;;;7.80;70.70;;;;;;5073455;28;20473;-80
2021/04/26 00:30:46;;;;;;;27.50;16.58;;;7.80;70.70;;;;;;5073369;28;20032;-80
2021/04/26 00:33:12;;;;;;;24.80;15.32;;;7.80;70.80;;;;;;5073598;28;20039;-80
2021/04/26 00:39:00;;;;;;;23.30;14.82;;;7.80;71.20;;;;;;5073088;28;20150;-80
2021/04/26 00:41:25;;;;;;;20.67;14.43;;;7.80;71.00;;;;;;5073511;28;20074;-79
2021/04/26 00:43:51;;;;;;;24.10;14.63;;;7.80;71.20;;;;;;5073273;28;20032;-80
2021/04/26 00:46:17;;;;;;;22.98;14.82;;;7.80;71.20;;;;;;5073388;28;20124;-80
2021/04/26 00:48:43;;;;;;;26.98;14.95;;;7.80;71.40;;;;;;5072857;28;20469;-79
2021/04/26 00:51:09;;;;;;;31.60;18.45;;;7.70;71.40;;;;;;5072015;28;20028;-79
2021/04/26 00:53:35;;;;;;;27.10;17.00;;;7.70;71.50;;;;;;5073581;28;20036;-79
2021/04/26 00:56:02;;;;;;;25.30;15.98;;;7.70;71.70;;;;;;5072926;28;20116;-80
2021/04/26 00:58:28;;;;;;;28.58;17.20;;;7.70;71.90;;;;;;5073307;28;20446;-80
2021/04/26 01:00:54;;;;;;;26.90;16.88;;;7.70;72.00;;;;;;5072788;28;20048;-80
2021/04/26 01:03:20;;;;;;;23.77;16.23;;;7.70;72.20;;;;;;5073326;28;20064;-80
2021/04/26 01:05:46;;;;;;;24.50;15.75;;;7.70;72.40;;;;;;5073171;28;20024;-80
2021/04/26 01:08:12;;;;;;;19.08;14.52;;;7.70;72.50;;;;;;5072818;28;20122;-80
2021/04/26 01:10:39;;;;;;;26.10;15.93;;;7.70;72.70;;;;;;5072988;28;20439;-81
2021/04/26 01:13:14;;;;;;;21.40;15.45;;;7.70;72.80;;;;;;5073067;28;20062;-79
2021/04/26 01:15:59;;;;;;;25.55;17.05;;;7.70;73.50;;;;;;5072716;28;20028;-80
2021/04/26 01:18:48;;;;;;;26.65;17.25;;;7.70;72.80;;;;;;5076372;28;20034;-80
2021/04/26 01:22:02;;;;;;;20.70;15.52;;;7.70;72.70;;;;;;5077414;28;20059;-80
2021/04/26 01:25:00;;;;;;;25.45;16.33;;;7.70;72.80;;;;;;5075731;28;20029;-79
2021/04/26 01:27:37;;;;;;;37.45;19.30;;;7.70;72.60;;;;;;5076628;28;20111;-79
2021/04/26 01:30:39;;;;;;;28.90;18.42;;;7.60;72.50;;;;;;5076506;28;20024;-79
2021/04/26 01:33:07;;;;;;;25.27;17.23;;;7.60;72.80;;;;;;5075126;28;20123;-80
2021/04/26 01:42:17;;;;;;;30.02;18.08;;;7.50;72.80;;;;;;5056500;28;20032;-79
2021/04/26 01:44:44;;;;;;;42.38;23.92;;;7.40;72.70;;;;;;5056134;28;20033;-79
2021/04/26 01:47:10;;;;;;;41.55;23.90;;;7.40;72.80;;;;;;5056283;28;20049;-80
2021/04/26 01:49:38;;;;;;;41.45;22.63;;;7.40;72.90;;;;;;5056275;28;20074;-80
2021/04/26 01:52:07;;;;;;;31.98;19.30;;;7.30;73.00;;;;;;5055897;28;20029;-79
2021/04/26 01:54:33;;;;;;;42.97;23.98;;;7.30;73.00;;;;;;5056172;28;20029;-79
2021/04/26 01:57:00;;;;;;;29.52;19.92;;;7.30;73.10;;;;;;5055677;28;20154;-79
2021/04/26 01:59:26;;;;;;;33.67;19.08;;;7.30;73.30;;;;;;5056207;28;20028;-79
2021/04/26 02:01:54;;;;;;;41.22;25.63;;;7.30;73.30;;;;;;5054594;28;20087;-79
2021/04/26 02:04:21;;;;;;;43.78;25.88;;;7.30;73.20;;;;;;5054457;28;20025;-79
2021/04/26 02:06:51;;;;;;;51.55;27.40;;;7.30;73.10;;;;;;5055779;28;20022;-80
2021/04/26 02:09:17;;;;;;;53.35;28.52;;;7.30;72.90;;;;;;5055667;28;20029;-79
2021/04/26 02:11:43;;;;;;;40.08;22.48;;;7.30;72.60;;;;;;5054533;28;20043;-80
2021/04/26 02:14:13;;;;;;;39.65;24.63;;;7.20;72.30;;;;;;5056175;28;20036;-79
2021/04/26 02:16:43;;;;;;;41.60;24.00;;;7.20;72.30;;;;;;5054680;28;20079;-79
2021/04/26 02:19:10;;;;;;;46.30;26.58;;;7.10;72.40;;;;;;5054609;28;20113;-78
2021/04/26 02:21:35;;;;;;;41.00;26.15;;;7.10;72.40;;;;;;5055180;28;20191;-80
2021/04/26 02:24:01;;;;;;;43.00;25.00;;;7.00;72.60;;;;;;5055173;28;20458;-79
2021/04/26 02:26:27;;;;;;;42.60;26.80;;;7.00;72.90;;;;;;5055404;28;20024;-79
2021/04/26 02:28:53;;;;;;;43.03;27.13;;;6.90;73.20;;;;;;5053875;28;20029;-79
2021/04/26 02:31:20;;;;;;;43.65;26.33;;;6.90;73.40;;;;;;5055503;28;20457;-79
2021/04/26 02:33:56;;;;;;;72.20;41.03;;;6.90;73.30;;;;;;5055595;28;20057;-79
2021/04/26 02:36:29;;;;;;;59.33;33.67;;;6.90;73.00;;;;;;5055683;28;20522;-79
2021/04/26 02:42:18;;;;;;;46.92;28.90;;;6.80;73.00;;;;;;5075238;28;20048;-79
2021/04/26 02:44:47;;;;;;;47.30;29.42;;;6.80;72.90;;;;;;5073927;28;20036;-80
2021/04/26 02:47:19;;;;;;;46.95;28.25;;;6.80;73.20;;;;;;5074634;28;20135;-79
2021/04/26 02:49:47;;;;;;;48.42;30.40;;;6.80;73.40;;;;;;5074014;28;20077;-80
2021/04/26 02:52:15;;;;;;;44.53;28.33;;;6.80;73.40;;;;;;5075105;28;20462;-79
2021/04/26 02:54:42;;;;;;;42.50;25.65;;;6.90;73.60;;;;;;5075333;28;20462;-79
2021/04/26 02:57:09;;;;;;;44.05;26.08;;;6.90;73.80;;;;;;5075099;28;20378;-79
2021/04/26 02:59:37;;;;;;;38.40;25.70;;;7.00;74.00;;;;;;5074917;28;20428;-79
2021/04/26 03:02:04;;;;;;;45.47;28.98;;;7.00;74.00;;;;;;5073718;28;20032;-79
2021/04/26 03:04:31;;;;;;;42.67;28.40;;;7.10;73.70;;;;;;5075019;28;20122;-79
2021/04/26 03:07:00;;;;;;;43.67;27.10;;;7.20;73.40;;;;;;5057007;28;20039;-80
2021/04/26 03:09:29;;;;;;;42.55;26.02;;;7.20;73.20;;;;;;5074329;28;20604;-79
2021/04/26 03:11:55;;;;;;;36.70;25.00;;;7.30;73.30;;;;;;5074314;28;20394;-79
2021/04/26 03:14:21;;;;;;;41.28;25.08;;;7.40;73.30;;;;;;5074505;28;20028;-80
2021/04/26 03:16:52;;;;;;;40.40;25.13;;;7.60;73.20;;;;;;5074838;28;20405;-80
2021/04/26 03:19:19;;;;;;;43.97;25.67;;;7.60;73.00;;;;;;5074610;28;20021;-80
2021/04/26 03:21:48;;;;;;;35.20;22.92;;;7.70;72.60;;;;;;5073264;28;20493;-79
2021/04/26 03:24:16;;;;;;;32.38;22.00;;;7.80;72.50;;;;;;5074453;28;20016;-80
2021/04/26 03:26:44;;;;;;;39.53;25.45;;;7.90;72.40;;;;;;5072641;28;20033;-79
2021/04/26 03:29:16;;;;;;;36.78;25.13;;;7.90;72.20;;;;;;5072966;28;20025;-79
2021/04/26 03:31:41;;;;;;;36.63;22.92;;;8.00;72.00;;;;;;5074201;28;20032;-79
2021/04/26 03:34:08;;;;;;;37.55;22.67;;;8.00;71.90;;;;;;5073920;28;20024;-80
2021/04/26 03:36:36;;;;;;;36.83;24.17;;;8.10;71.80;;;;;;5073913;28;20367;-80
2021/04/26 03:39:02;;;;;;;38.92;23.80;;;8.10;71.60;;;;;;5073707;28;20037;-79
2021/04/26 03:41:28;;;;;;;35.88;22.58;;;8.10;71.40;;;;;;5072792;28;20040;-80
2021/04/26 03:43:55;;;;;;;40.58;23.55;;;8.10;71.30;;;;;;5070383;28;20115;-80
2021/04/26 03:46:21;;;;;;;34.83;22.33;;;8.10;71.20;;;;;;5073154;28;20380;-79
2021/04/26 03:48:47;;;;;;;37.05;22.83;;;8.10;71.10;;;;;;5073601;28;20035;-79
2021/04/26 03:51:13;;;;;;;33.65;21.98;;;8.10;71.20;;;;;;5055610;28;20511;-79
2021/04/26 03:53:39;;;;;;;31.60;20.83;;;8.10;71.30;;;;;;5073843;28;20024;-79
2021/04/26 03:56:05;;;;;;;30.98;21.17;;;8.20;71.50;;;;;;5073593;28;20099;-79
2021/04/26 03:58:31;;;;;;;36.40;21.17;;;8.20;71.50;;;;;;5073462;28;20033;-78
2021/04/26 04:00:56;;;;;;;26.90;19.58;;;8.30;71.50;;;;;;5073151;28;20391;-79
2021/04/26 04:03:22;;;;;;;30.25;19.85;;;8.40;71.40;;;;;;5073306;28;20028;-79
2021/04/26 04:05:48;;;;;;;28.20;18.75;;;8.40;71.10;;;;;;5072944;28;20078;-79
2021/04/26 04:08:14;;;;;;;27.58;20.05;;;8.40;70.80;;;;;;5071282;28;20025;-78
2021/04/26 04:10:39;;;;;;;30.02;20.42;;;8.40;70.70;;;;;;5073445;28;20035;-78
2021/04/26 04:13:05;;;;;;;31.15;19.55;;;8.40;70.50;;;;;;5071917;28;20094;-79
2021/04/26 04:15:31;;;;;;;29.10;19.08;;;8.30;70.40;;;;;;5071348;28;20029;-81
2021/04/26 04:17:59;;;;;;;26.63;18.55;;;8.10;70.60;;;;;;5073028;28;20099;-80
2021/04/26 04:20:25;;;;;;;30.92;19.02;;;8.10;70.90;;;;;;5073154;28;20028;-79
2021/04/26 04:22:51;;;;;;;26.38;18.05;;;8.00;71.20;;;;;;5073011;28;20059;-80
2021/04/26 04:25:17;;;;;;;40.08;20.75;;;7.90;71.50;;;;;;5071892;28;20052;-80
2021/04/26 04:27:44;;;;;;;31.27;20.27;;;7.80;71.80;;;;;;5072790;28;20040;-80
2021/04/26 04:30:11;;;;;;;30.67;20.75;;;7.70;72.10;;;;;;5072733;28;20459;-80
2021/04/26 04:32:37;;;;;;;39.40;22.58;;;7.50;72.40;;;;;;5071274;28;20032;-79
2021/04/26 04:35:04;;;;;;;34.83;21.40;;;7.40;72.90;;;;;;5072989;28;20865;-80
2021/04/26 04:37:30;;;;;;;38.67;21.88;;;7.30;73.40;;;;;;5072584;28;20029;-80
2021/04/26 04:43:18;;;;;;;19.65;12.65;;;7.30;73.90;;;;;;5071241;28;20020;-79
2021/04/26 04:45:44;;;;;;;23.67;15.85;;;7.20;73.50;;;;;;5072432;28;20473;-82
2021/04/26 04:48:09;;;;;;;18.85;9.88;;;7.10;73.60;;;;;;5071820;28;20024;-79
2021/04/26 04:50:35;;;;;;;18.05;12.00;;;7.10;73.30;;;;;;5071755;28;20458;-80
2021/04/26 04:53:01;;;;;;;22.83;12.70;;;7.00;73.00;;;;;;5069699;28;20342;-79
2021/04/26 04:55:27;;;;;;;25.58;14.10;;;7.00;73.90;;;;;;5061645;28;20056;-80
2021/04/26 04:57:53;;;;;;;20.73;11.18;;;6.90;73.40;;;;;;5060868;28;20448;-79
2021/04/26 05:00:19;;;;;;;20.95;11.65;;;6.80;73.50;;;;;;5062759;28;20032;-81
2021/04/26 05:02:44;;;;;;;15.35;9.85;;;6.60;73.90;;;;;;5059630;28;20064;-82
2021/04/26 05:05:10;;;;;;;13.70;9.35;;;6.40;74.10;;;;;;5061711;28;20177;-81
2021/04/26 05:07:36;;;;;;;18.20;9.50;;;6.20;74.80;;;;;;5062354;28;20450;-82
2021/04/26 05:10:03;;;;;;;14.60;9.30;;;6.00;75.70;;;;;;5062605;28;20031;-82
2021/04/26 05:12:29;;;;;;;15.90;10.73;;;5.80;76.40;;;;;;5070702;28;20475;-82
2021/04/26 05:14:55;;;;;;;19.33;12.20;;;5.60;77.40;;;;;;5071541;28;20043;-82
2021/04/26 05:17:20;;;;;;;20.25;11.85;;;5.40;78.40;;;;;;5071918;28;20033;-81
2021/04/26 05:19:46;;;;;;;25.05;12.82;;;5.30;79.60;;;;;;5071642;28;20481;-81
2021/04/26 05:22:12;;;;;;;24.25;12.80;;;5.20;80.60;;;;;;5071340;28;20134;-81
2021/04/26 05:24:39;;;;;;;25.25;13.07;;;5.20;81.40;;;;;;5071716;28;20025;-81
2021/04/26 05:27:05;;;;;;;25.50;13.68;;;5.20;82.70;;;;;;5070624;28;20424;-81
2021/04/26 05:29:30;;;;;;;20.33;11.85;;;5.20;83.10;;;;;;5072582;28;20199;-81
2021/04/26 05:31:56;;;;;;;23.15;13.13;;;5.30;83.70;;;;;;5072387;28;20112;-82
2021/04/26 05:34:22;;;;;;;20.15;11.88;;;5.30;84.00;;;;;;5071229;28;20458;-80
2021/04/26 05:36:48;;;;;;;18.83;12.35;;;5.40;84.60;;;;;;5069773;28;20031;-82
2021/04/26 05:39:13;;;;;;;22.05;13.27;;;5.40;84.80;;;;;;5071195;28;20025;-82
2021/04/26 05:41:39;;;;;;;18.13;12.38;;;5.50;84.90;;;;;;5065487;28;20405;-82
2021/04/26 05:44:05;;;;;;;25.02;14.57;;;5.50;84.60;;;;;;5069890;28;20060;-82
2021/04/26 05:46:31;;;;;;;21.65;13.35;;;5.60;84.80;;;;;;5070524;28;20410;-81
2021/04/26 05:48:57;;;;;;;22.33;13.52;;;5.60;84.80;;;;;;5071535;28;20032;-82
2021/04/26 05:51:23;;;;;;;27.25;14.50;;;5.50;85.10;;;;;;5072129;28;20108;-81
2021/04/26 05:53:49;;;;;;;21.80;13.35;;;5.60;85.20;;;;;;5072432;28;20029;-81
2021/04/26 05:56:14;;;;;;;25.90;14.80;;;5.60;85.10;;;;;;5070998;28;20081;-81
2021/04/26 05:58:40;;;;;;;24.00;14.40;;;5.50;84.50;;;;;;5072239;28;20060;-81
2021/04/26 06:01:06;;;;;;;17.05;11.32;;;5.40;84.40;;;;;;5072027;28;20020;-81
2021/04/26 06:03:31;;;;;;;11.52;7.50;;;5.30;85.00;;;;;;5073727;28;20024;-81
2021/04/26 06:05:57;;;;;;;10.63;7.10;;;5.30;85.00;;;;;;5074804;28;20038;-81
2021/04/26 06:08:24;;;;;;;8.23;4.55;;;5.20;86.20;;;;;;5074671;28;20029;-81
2021/04/26 06:10:50;;;;;;;6.40;3.83;;;5.20;86.20;;;;;;5075616;28;20016;-82
2021/04/26 06:13:15;;;;;;;4.43;3.30;;;5.10;86.10;;;;;;5073976;28;20478;-82
2021/04/26 06:15:41;;;;;;;3.42;2.80;;;5.00;86.20;;;;;;5075345;28;20063;-81
2021/04/26 06:18:18;;;;;;;3.15;2.80;;;4.90;86.10;;;;;;5074668;28;20024;-81
2021/04/26 06:20:45;;;;;;;4.07;2.80;;;4.80;86.70;;;;;;5076001;28;20021;-80
2021/04/26 06:23:11;;;;;;;2.67;2.42;;;4.80;87.70;;;;;;5073537;28;20055;-82
2021/04/26 06:25:39;;;;;;;2.30;2.10;;;4.90;88.40;;;;;;5073963;28;20020;-82
2021/04/26 06:28:06;;;;;;;2.38;2.17;;;4.90;88.60;;;;;;5074391;28;20441;-82
2021/04/26 06:30:31;;;;;;;2.72;2.45;;;4.90;88.90;;;;;;5074613;28;20494;-80
2021/04/26 06:32:57;;;;;;;5.15;3.38;;;4.90;88.70;;;;;;5073710;28;20041;-81
2021/04/26 06:35:24;;;;;;;8.50;3.72;;;4.90;88.80;;;;;;5073185;28;20040;-81
2021/04/26 06:37:51;;;;;;;7.15;3.20;;;4.90;88.90;;;;;;5073613;28;20028;-82
2021/04/26 06:40:17;;;;;;;10.02;3.97;;;4.90;88.60;;;;;;5075241;28;20024;-82
2021/04/26 06:42:43;;;;;;;10.25;3.50;;;4.90;88.70;;;;;;5073249;28;20028;-81
2021/04/26 06:45:10;;;;;;;7.68;3.85;;;4.90;88.80;;;;;;5075218;28;20024;-81
2021/04/26 06:47:37;;;;;;;6.13;3.58;;;4.80;88.80;;;;;;5074739;28;20055;-81
2021/04/26 06:50:04;;;;;;;2.33;2.13;;;4.80;88.80;;;;;;5075346;28;20051;-81
2021/04/26 06:52:29;;;;;;;4.45;2.40;;;4.80;89.10;;;;;;5075191;28;20488;-81
2021/04/26 06:54:55;;;;;;;2.90;2.13;;;4.80;89.30;;;;;;5074788;28;20029;-81
2021/04/26 06:57:21;;;;;;;4.57;2.38;;;4.80;89.80;;;;;;5074081;28;20032;-81
2021/04/26 06:59:47;;;;;;;2.08;1.98;;;4.90;90.00;;;;;;5074656;28;20154;-82
2021/04/26 07:02:12;;;;;;;1.90;1.80;;;4.90;90.20;;;;;;5073162;28;20032;-81
2021/04/26 07:04:38;;;;;;;1.92;1.63;;;5.00;90.20;;;;;;5073633;28;20556;-81
2021/04/26 07:07:04;;;;;;;1.98;1.70;;;5.00;90.10;;;;;;5073507;28;20025;-81
2021/04/26 07:09:30;;;;;;;2.63;2.00;;;5.10;90.50;;;;;;5073433;28;20104;-81
2021/04/26 07:11:57;;;;;;;1.80;1.70;;;5.10;90.30;;;;;;5072877;28;20064;-82
2021/04/26 07:14:23;;;;;;;1.42;1.33;;;5.20;90.20;;;;;;5070084;28;20111;-80
2021/04/26 07:16:49;;;;;;;1.60;1.50;;;5.30;90.40;;;;;;5072787;28;20017;-80
2021/04/26 07:19:15;;;;;;;3.22;1.45;;;5.30;90.60;;;;;;5071638;28;20066;-81
2021/04/26 07:21:41;;;;;;;1.73;1.50;;;5.40;90.40;;;;;;5073112;28;20510;-81
2021/04/26 07:24:07;;;;;;;1.98;1.67;;;5.50;90.30;;;;;;5072694;28;20123;-80
2021/04/26 07:26:33;;;;;;;1.30;1.20;;;5.50;90.40;;;;;;5073127;28;20025;-79
2021/04/26 07:28:59;;;;;;;1.00;1.00;;;5.60;90.50;;;;;;5072821;28;20070;-82
2021/04/26 07:31:24;;;;;;;2.00;1.80;;;5.70;90.50;;;;;;5073116;28;20074;-81
2021/04/26 07:33:50;;;;;;;1.33;1.23;;;5.80;90.70;;;;;;5072544;28;20021;-81
2021/04/26 07:36:16;;;;;;;1.58;1.45;;;5.80;90.60;;;;;;5073492;28;20065;-82
2021/04/26 07:38:42;;;;;;;1.45;1.35;;;5.90;90.40;;;;;;5073230;28;20024;-81
2021/04/26 07:46:36;;;;;;;1.52;1.40;;;5.90;90.00;;;;;;5072360;28;20431;-81
2021/04/26 07:49:02;;;;;;;2.03;1.80;;;5.90;89.60;;;;;;5072429;28;20112;-80
2021/04/26 07:51:28;;;;;;;2.47;1.70;;;5.90;89.20;;;;;;5072353;28;20043;-81
2021/04/26 07:53:53;;;;;;;2.75;2.08;;;5.80;89.20;;;;;;5072725;28;20462;-81
2021/04/26 07:56:19;;;;;;;1.77;1.40;;;5.90;89.90;;;;;;5072269;28;20016;-82
2021/04/26 07:58:45;;;;;;;2.38;1.80;;;5.90;90.10;;;;;;5072052;28;20028;-81
2021/04/26 08:01:11;;;;;;;1.98;1.77;;;5.90;90.20;;;;;;5071746;28;20103;-80
2021/04/26 08:03:36;;;;;;;3.47;2.00;;;5.90;90.10;;;;;;5072219;28;20123;-81
2021/04/26 08:06:04;;;;;;;2.38;1.80;;;6.00;90.10;;;;;;5072384;28;20021;-80
2021/04/26 08:08:31;;;;;;;1.70;1.60;;;6.00;90.10;;;;;;5072250;28;20012;-81
2021/04/26 08:10:56;;;;;;;3.58;2.03;;;6.00;89.40;;;;;;5071764;28;20214;-81
2021/04/26 08:13:25;;;;;;;2.38;1.70;;;6.00;89.10;;;;;;5071931;28;20131;-80
2021/04/26 08:15:50;;;;;;;2.47;2.13;;;6.00;89.50;;;;;;5072176;28;20355;-81
2021/04/26 08:18:16;;;;;;;1.85;1.70;;;6.00;90.10;;;;;;5071885;28;20017;-81
2021/04/26 08:20:42;;;;;;;2.78;1.80;;;6.00;89.60;;;;;;5072127;28;20366;-82
2021/04/26 08:23:07;;;;;;;2.15;2.00;;;5.90;89.20;;;;;;5071750;28;20029;-81
2021/04/26 08:25:33;;;;;;;7.57;2.65;;;5.90;89.20;;;;;;5071895;28;20127;-81
2021/04/26 08:27:59;;;;;;;3.40;2.53;;;5.90;89.30;;;;;;5071791;28;20031;-80
2021/04/26 08:30:25;;;;;;;2.15;2.05;;;6.00;89.60;;;;;;5071020;28;20052;-81
2021/04/26 08:32:51;;;;;;;2.28;2.08;;;6.00;89.60;;;;;;5071363;28;20047;-81
2021/04/26 08:35:17;;;;;;;2.13;1.90;;;6.00;89.10;;;;;;5073271;28;20430;-80
2021/04/26 08:37:43;;;;;;;2.38;2.15;;;6.00;89.20;;;;;;5073176;28;20031;-81
2021/04/26 08:40:09;;;;;;;6.05;1.70;;;6.00;89.40;;;;;;5073132;28;20466;-80
2021/04/26 08:45:59;;;;;;;2.00;1.70;;;6.00;88.80;;;;;;5072618;28;20109;-80
2021/04/26 08:48:25;;;;;;;2.42;2.22;;;6.00;89.50;;;;;;5073240;28;20112;-80
2021/04/26 08:50:51;;;;;;;2.53;2.20;;;6.00;90.00;;;;;;5072433;28;20028;-81
2021/04/26 08:53:17;;;;;;;2.75;2.55;;;6.00;89.80;;;;;;5072696;28;20036;-80
2021/04/26 08:55:43;;;;;;;2.72;2.20;;;6.00;89.80;;;;;;5072898;28;20033;-80
2021/04/26 08:58:08;;;;;;;2.05;1.90;;;6.10;89.80;;;;;;5072980;28;20040;-81
2021/04/26 09:00:34;;;;;;;2.33;2.13;;;6.10;89.60;;;;;;5073196;28;20024;-80
2021/04/26 09:03:03;;;;;;;2.38;2.13;;;6.10;89.40;;;;;;5070937;28;20024;-81
2021/04/26 09:05:34;;;;;;;2.88;2.33;;;6.10;89.70;;;;;;5073085;28;20052;-81
2021/04/26 09:08:03;;;;;;;8.80;4.38;;;6.10;89.80;;;;;;5072727;28;20033;-82
2021/04/26 09:10:47;;;;;;;2.40;2.20;;;6.20;90.20;;;;;;5072782;28;20021;-80
2021/04/26 09:13:38;;;;;;;2.97;2.65;;;6.30;90.30;;;;;;5071314;28;20078;-81
2021/04/26 09:16:10;;;;;;;2.35;2.15;;;6.40;90.40;;;;;;5072909;28;20028;-80
2021/04/26 09:18:50;;;;;;;2.42;2.22;;;6.60;90.80;;;;;;5073275;28;20020;-81
2021/04/26 09:21:24;;;;;;;3.17;2.47;;;6.70;90.30;;;;;;5072671;28;20056;-81
2021/04/26 09:24:22;;;;;;;2.63;2.23;;;6.90;90.60;;;;;;5072441;28;20074;-81
2021/04/26 09:27:10;;;;;;;2.88;2.42;;;7.00;90.40;;;;;;5071290;28;20020;-81
2021/04/26 09:29:36;;;;;;;3.30;2.35;;;7.20;90.30;;;;;;5070241;28;20031;-80
2021/04/26 09:32:19;;;;;;;2.38;2.17;;;7.30;90.30;;;;;;5072640;28;20031;-81
2021/04/26 09:34:50;;;;;;;2.47;2.05;;;7.40;90.00;;;;;;5072713;28;20028;-81
2021/04/26 09:37:27;;;;;;;2.42;1.90;;;7.60;90.10;;;;;;5072647;28;20109;-81
2021/04/26 09:40:04;;;;;;;2.80;2.40;;;7.70;89.20;;;;;;5076448;28;20070;-80
2021/04/26 09:42:54;;;;;;;2.42;2.10;;;7.80;88.90;;;;;;5075987;28;20032;-81
2021/04/26 09:45:24;;;;;;;2.15;1.95;;;7.80;88.80;;;;;;5067051;28;20132;-80
2021/04/26 09:48:10;;;;;;;1.92;1.80;;;8.00;89.60;;;;;;5074534;28;20124;-81
2021/04/26 09:50:56;;;;;;;2.83;1.90;;;8.20;89.60;;;;;;5075713;28;20067;-81
2021/04/26 09:53:25;;;;;;;3.33;2.28;;;8.40;89.20;;;;;;5069777;28;20032;-80
2021/04/26 09:55:52;;;;;;;2.22;2.00;;;8.70;89.90;;;;;;5076353;28;20036;-82
2021/04/26 09:58:19;;;;;;;2.40;1.67;;;9.00;89.50;;;;;;5075715;28;20462;-79
2021/04/26 10:00:46;;;;;;;1.88;1.73;;;9.30;89.00;;;;;;5075772;28;20075;-80
2021/04/26 10:03:16;;;;;;;3.08;2.10;;;9.60;88.50;;;;;;5075276;28;20056;-81
2021/04/26 10:05:44;;;;;;;1.85;1.67;;;10.10;89.70;;;;;;5074092;28;20044;-79
2021/04/26 10:08:16;;;;;;;2.15;1.92;;;10.70;90.00;;;;;;5075370;28;20111;-81
2021/04/26 10:10:44;;;;;;;4.13;2.30;;;11.40;90.20;;;;;;5075916;28;20048;-79
2021/04/26 10:13:10;;;;;;;3.28;2.17;;;12.20;90.30;;;;;;5075855;28;20028;-81
2021/04/26 10:15:37;;;;;;;1.92;1.80;;;13.00;88.20;;;;;;5066068;28;20116;-81
2021/04/26 10:18:07;;;;;;;3.70;1.60;;;13.90;87.40;;;;;;5064049;28;20090;-81
2021/04/26 10:20:40;;;;;;;2.30;1.67;;;14.60;84.90;;;;;;5064469;28;20017;-81
2021/04/26 10:23:39;;;;;;;1.85;1.63;;;15.30;84.00;;;;;;5067177;28;20029;-81
2021/04/26 10:26:06;;;;;;;2.75;1.80;;;15.90;79.30;;;;;;5069052;28;20147;-82
2021/04/26 10:28:36;;;;;;;2.47;1.85;;;16.30;79.00;;;;;;5069708;28;20074;-81
2021/04/26 10:31:08;;;;;;;2.25;1.67;;;16.70;76.70;;;;;;5067153;28;20032;-81
2021/04/26 10:33:55;;;;;;;3.30;1.60;;;16.60;73.30;;;;;;5074408;28;20054;-81
2021/04/26 10:36:40;;;;;;;2.05;1.85;;;17.10;74.00;;;;;;5073982;28;20021;-81
2021/04/26 10:39:14;;;;;;;2.25;2.00;;;17.40;72.00;;;;;;5070280;28;20094;-81
2021/04/26 10:41:45;;;;;;;3.85;2.40;;;17.30;71.10;;;;;;5073872;28;20074;-82
2021/04/26 10:50:02;;;;;;;2.45;2.25;;;16.50;68.50;;;;;;5071350;28;20102;-81
2021/04/26 10:52:28;;;;;;;2.70;2.17;;;16.00;68.90;;;;;;5072606;28;20043;-80
2021/04/26 10:54:54;;;;;;;5.20;2.50;;;15.80;69.70;;;;;;5072070;28;20033;-81
2021/04/26 10:57:49;;;;;;;2.90;2.28;;;15.70;69.50;;;;;;5073737;28;20028;-81
2021/04/26 11:00:26;;;;;;;2.70;2.05;;;15.60;68.00;;;;;;5073522;28;20029;-80
2021/04/26 11:02:54;;;;;;;2.00;1.80;;;15.50;68.50;;;;;;5073518;28;20024;-80
2021/04/26 11:05:25;;;;;;;2.65;2.10;;;15.40;68.80;;;;;;5073471;28;20025;-81
2021/04/26 11:07:58;;;;;;;3.10;2.00;;;15.30;68.20;;;;;;5073445;28;20550;-81
2021/04/26 11:10:31;;;;;;;3.92;2.33;;;15.10;68.40;;;;;;5073089;28;20079;-80
2021/04/26 11:13:02;;;;;;;4.28;1.88;;;14.80;66.60;;;;;;5070480;28;20043;-80
2021/04/26 11:15:28;;;;;;;3.83;2.25;;;14.40;66.70;;;;;;5073322;28;20027;-81
2021/04/26 11:17:55;;;;;;;2.97;2.20;;;14.00;67.50;;;;;;5071810;28;20043;-81
2021/04/26 11:20:23;;;;;;;5.15;2.78;;;13.70;67.80;;;;;;5071723;28;20550;-81
2021/04/26 11:22:54;;;;;;;2.60;2.20;;;13.50;68.30;;;;;;5073110;28;20423;-80
2021/04/26 11:25:34;;;;;;;5.03;2.75;;;13.20;68.20;;;;;;5073544;28;20025;-80
2021/04/26 11:28:02;;;;;;;2.53;2.30;;;13.00;68.40;;;;;;5074080;28;20028;-80
2021/04/26 11:30:35;;;;;;;3.10;1.95;;;12.90;70.10;;;;;;5074077;28;20020;-80
2021/04/26 11:33:04;;;;;;;3.95;2.75;;;13.00;69.60;;;;;;5073682;28;20067;-81
2021/04/26 11:35:31;;;;;;;2.92;2.00;;;13.40;71.60;;;;;;5073189;28;20059;-81
2021/04/26 11:37:57;;;;;;;2.05;1.83;;;13.80;71.20;;;;;;5076248;28;20035;-82
2021/04/26 11:40:28;;;;;;;3.60;2.13;;;14.20;71.60;;;;;;5072854;28;20386;-81
2021/04/26 11:43:14;;;;;;;5.63;2.72;;;14.70;70.60;;;;;;5073748;28;20095;-81
2021/04/26 11:45:46;;;;;;;2.03;1.83;;;15.10;68.00;;;;;;5072388;28;20033;-81
2021/04/26 11:51:33;;;;;;;2.10;1.90;;;16.80;69.30;;;;;;5052640;28;20401;-81
2021/04/26 11:54:23;;;;;;;2.00;1.80;;;18.30;69.50;;;;;;5052349;28;20033;-81
2021/04/26 11:57:02;;;;;;;2.95;1.80;;;19.10;62.90;;;;;;5054151;28;20033;-81
2021/04/26 11:59:29;;;;;;;3.72;1.77;;;20.60;61.40;;;;;;5053522;28;20056;-81
2021/04/26 12:01:55;;;;;;;1.77;1.67;;;21.90;60.30;;;;;;5053449;28;20056;-82
2021/04/26 12:04:33;;;;;;;2.78;1.67;;;22.80;56.70;;;;;;5053569;28;20029;-81
2021/04/26 12:06:59;;;;;;;2.00;1.80;;;23.90;52.00;;;;;;5069566;28;20437;-81
2021/04/26 12:09:25;;;;;;;4.90;1.92;;;24.90;52.10;;;;;;5074843;28;20107;-81
2021/04/26 12:11:59;;;;;;;2.03;1.80;;;25.30;49.20;;;;;;5072446;28;20151;-81
2021/04/26 12:14:25;;;;;;;2.72;1.73;;;25.30;46.10;;;;;;5072765;28;20117;-81
2021/04/26 12:16:50;;;;;;;1.48;1.42;;;26.00;47.20;;;;;;5073295;28;20037;-81
2021/04/26 12:19:33;;;;;;;1.60;1.50;;;26.80;46.00;;;;;;5073041;28;20108;-80
2021/04/26 12:21:59;;;;;;;1.70;1.60;;;27.60;43.00;;;;;;5073272;28;20390;-81
2021/04/26 12:24:25;;;;;;;2.60;1.60;;;28.20;43.20;;;;;;5073509;28;20029;-80
2021/04/26 12:26:51;;;;;;;2.50;2.00;;;27.90;40.40;;;;;;5071801;28;20028;-80
2021/04/26 12:29:29;;;;;;;2.10;1.90;;;27.20;39.70;;;;;;5073183;28;20436;-81
2021/04/26 12:32:10;;;;;;;1.60;1.50;;;27.10;38.80;;;;;;5073334;28;20121;-81
2021/04/26 12:34:52;;;;;;;1.80;1.63;;;27.60;38.90;;;;;;5075974;28;20024;-81
2021/04/26 12:37:22;;;;;;;3.17;2.00;;;28.10;38.60;;;;;;5073122;28;20047;-81
2021/04/26 12:39:49;;;;;;;2.20;2.05;;;28.60;38.20;;;;;;5071960;28;20039;-81
2021/04/26 12:42:18;;;;;;;1.85;1.75;;;29.00;37.70;;;;;;5073185;28;20036;-81
2021/04/26 12:44:45;;;;;;;4.05;2.22;;;28.40;36.70;;;;;;5073291;28;20028;-81
2021/04/26 12:49:48;;;;;;;1.90;1.80;;;25.80;35.50;;;;;;5066260;28;20048;-81
2021/04/26 12:52:18;;;;;;;3.72;1.90;;;24.60;36.80;;;;;;5071234;28;20080;-81
2021/04/26 12:55:00;;;;;;;4.65;2.00;;;24.10;37.50;;;;;;5073092;28;20024;-81
2021/04/26 12:57:27;;;;;;;2.35;2.03;;;24.50;38.10;;;;;;5073132;28;20386;-81
2021/04/26 12:59:54;;;;;;;3.15;1.67;;;25.10;38.30;;;;;;5073373;28;20380;-81
2021/04/26 13:02:31;;;;;;;1.95;1.67;;;25.70;37.60;;;;;;5072740;28;20036;-81
2021/04/26 13:04:59;;;;;;;2.85;1.60;;;26.50;37.10;;;;;;5073083;28;20028;-81
2021/04/26 13:07:27;;;;;;;3.83;1.67;;;27.30;36.40;;;;;;5072848;28;20123;-81
2021/04/26 13:10:03;;;;;;;2.38;1.58;;;28.00;36.20;;;;;;5073148;28;20029;-82
2021/04/26 13:12:29;;;;;;;2.00;1.70;;;28.60;35.10;;;;;;5072387;28;20130;-83
2021/04/26 13:14:54;;;;;;;2.08;1.92;;;29.30;35.30;;;;;;5076734;28;20518;-81
2021/04/26 13:17:34;;;;;;;1.92;1.75;;;29.80;34.60;;;;;;5076901;28;20036;-81
2021/04/26 13:20:22;;;;;;;2.13;1.83;;;30.20;33.30;;;;;;5076912;28;20032;-83
2021/04/26 13:22:48;;;;;;;2.13;2.00;;;30.40;33.00;;;;;;5075363;28;20538;-80
2021/04/26 13:25:14;;;;;;;2.33;2.13;;;30.50;32.50;;;;;;5076290;28;20107;-82
2021/04/26 13:27:43;;;;;;;2.40;1.98;;;29.80;31.20;;;;;;5076667;28;20029;-80
2021/04/26 13:30:09;;;;;;;2.03;1.83;;;28.50;30.60;;;;;;5076470;28;20107;-80
2021/04/26 13:32:40;;;;;;;3.47;1.95;;;27.10;31.20;;;;;;5076487;28;20083;-80